createdAt,value
2018-07-23T00:00:53.419Z,17.90
2018-07-23T00:03:22.786Z,17.90
2018-07-23T00:05:52.185Z,17.90
2018-07-23T00:08:21.574Z,17.80
2018-07-23T00:10:51.066Z,17.80
2018-07-23T00:13:20.424Z,17.80
2018-07-23T00:15:49.803Z,17.80
2018-07-23T00:18:19.462Z,17.80
2018-07-23T00:20:48.795Z,17.80
2018-07-23T00:23:18.117Z,17.80
2018-07-23T00:25:47.682Z,17.70
2018-07-23T00:28:16.949Z,17.70
2018-07-23T00:30:46.294Z,17.70
2018-07-23T00:33:16.094Z,17.70
2018-07-23T00:35:46.089Z,17.60
2018-07-23T00:38:16.185Z,17.60
2018-07-23T00:40:46.224Z,17.60
2018-07-23T00:43:16.200Z,17.60
2018-07-23T00:45:46.185Z,17.60
2018-07-23T00:48:16.173Z,17.60
2018-07-23T00:50:46.110Z,17.60
2018-07-23T00:53:16.197Z,17.60
2018-07-23T00:55:46.120Z,17.50
2018-07-23T00:58:16.243Z,17.50
2018-07-23T01:03:16.124Z,17.50
2018-07-23T01:05:46.202Z,17.50
2018-07-23T01:08:16.612Z,17.40
2018-07-23T01:10:46.313Z,17.40
2018-07-23T01:13:16.167Z,17.40
2018-07-23T01:15:46.296Z,17.40
2018-07-23T01:18:16.221Z,17.40
2018-07-23T01:20:46.242Z,17.40
2018-07-23T01:23:16.284Z,17.30
2018-07-23T01:25:46.249Z,17.30
2018-07-23T01:28:16.286Z,17.30
2018-07-23T01:30:46.496Z,17.30
2018-07-23T01:33:16.220Z,17.30
2018-07-23T01:35:46.267Z,17.30
2018-07-23T01:38:16.309Z,17.20
2018-07-23T01:40:46.233Z,17.20
2018-07-23T01:43:16.353Z,17.20
2018-07-23T01:45:46.234Z,17.20
2018-07-23T01:48:16.286Z,17.20
2018-07-23T01:50:46.276Z,17.10
2018-07-23T01:53:16.318Z,17.10
2018-07-23T01:55:46.285Z,17.10
2018-07-23T01:58:16.343Z,17.10
2018-07-23T02:00:46.385Z,17.10
2018-07-23T02:03:16.280Z,17.10
2018-07-23T02:05:46.302Z,17.00
2018-07-23T02:08:16.302Z,17.00
2018-07-23T02:10:46.392Z,17.00
2018-07-23T02:13:16.349Z,17.00
2018-07-23T02:15:46.423Z,16.90
2018-07-23T02:18:16.405Z,16.90
2018-07-23T02:20:46.334Z,16.90
2018-07-23T02:23:16.335Z,16.90
2018-07-23T02:25:46.356Z,16.90
2018-07-23T02:28:16.480Z,16.80
2018-07-23T02:30:46.394Z,16.80
2018-07-23T02:33:16.478Z,16.80
2018-07-23T02:35:46.377Z,16.80
2018-07-23T02:38:16.343Z,16.70
2018-07-23T02:40:46.424Z,16.70
2018-07-23T02:43:16.415Z,16.70
2018-07-23T02:45:46.316Z,16.70
2018-07-23T02:48:16.433Z,16.70
2018-07-23T02:50:46.565Z,16.60
2018-07-23T02:53:16.458Z,16.60
2018-07-23T02:55:46.458Z,16.60
2018-07-23T02:58:16.427Z,16.60
2018-07-23T03:00:46.431Z,16.60
2018-07-23T03:03:16.517Z,16.60
2018-07-23T03:05:46.355Z,16.50
2018-07-23T03:08:16.522Z,16.50
2018-07-23T03:10:46.508Z,16.50
2018-07-23T03:13:16.480Z,16.50
2018-07-23T03:15:46.441Z,16.50
2018-07-23T03:18:16.553Z,16.40
2018-07-23T03:20:46.552Z,16.40
2018-07-23T03:23:16.463Z,16.40
2018-07-23T03:25:46.472Z,16.40
2018-07-23T03:28:16.462Z,16.30
2018-07-23T03:30:46.449Z,16.30
2018-07-23T03:33:16.517Z,16.30
2018-07-23T03:35:46.560Z,16.30
2018-07-23T03:38:16.635Z,16.30
2018-07-23T03:40:46.547Z,16.30
2018-07-23T03:43:16.534Z,16.30
2018-07-23T03:45:46.533Z,16.30
2018-07-23T03:48:16.572Z,16.30
2018-07-23T03:50:46.611Z,16.30
2018-07-23T03:53:16.480Z,16.30
2018-07-23T03:55:46.553Z,16.30
2018-07-23T03:58:16.595Z,16.30
2018-07-23T04:00:46.475Z,16.30
2018-07-23T04:03:16.620Z,16.30
2018-07-23T04:05:46.592Z,16.40
2018-07-23T04:08:16.615Z,16.40
2018-07-23T04:10:46.592Z,16.50
2018-07-23T04:13:16.561Z,16.50
2018-07-23T04:15:46.602Z,16.50
2018-07-23T04:18:16.641Z,16.60
2018-07-23T04:20:46.614Z,16.60
2018-07-23T04:23:16.822Z,16.60
2018-07-23T04:25:46.665Z,16.70
2018-07-23T04:28:16.595Z,16.60
2018-07-23T04:30:46.694Z,16.70
2018-07-23T04:33:16.823Z,16.70
2018-07-23T04:35:46.550Z,16.70
2018-07-23T04:38:16.631Z,16.80
2018-07-23T04:40:46.711Z,16.80
2018-07-23T04:43:16.583Z,16.90
2018-07-23T04:45:46.643Z,16.90
2018-07-23T04:48:16.647Z,16.90
2018-07-23T04:50:46.816Z,17.00
2018-07-23T04:53:16.622Z,17.00
2018-07-23T04:55:46.762Z,17.10
2018-07-23T04:58:16.677Z,17.20
2018-07-23T05:00:46.587Z,17.30
2018-07-23T05:03:16.740Z,17.30
2018-07-23T05:05:46.711Z,17.40
2018-07-23T05:08:16.796Z,17.50
2018-07-23T05:10:46.770Z,17.50
2018-07-23T05:13:16.686Z,17.60
2018-07-23T05:15:46.690Z,17.70
2018-07-23T05:18:16.749Z,17.80
2018-07-23T05:20:46.765Z,18.00
2018-07-23T05:23:16.771Z,18.10
2018-07-23T05:25:46.788Z,18.10
2018-07-23T05:28:16.672Z,18.20
2018-07-23T05:30:46.828Z,18.20
2018-07-23T05:33:16.922Z,18.20
2018-07-23T05:35:46.749Z,18.20
2018-07-23T05:38:16.782Z,18.30
2018-07-23T05:40:46.795Z,18.30
2018-07-23T05:43:16.767Z,18.30
2018-07-23T05:45:46.840Z,18.30
2018-07-23T05:48:17.000Z,18.40
2018-07-23T05:50:46.678Z,18.40
2018-07-23T05:53:16.769Z,18.50
2018-07-23T05:55:46.818Z,18.50
2018-07-23T05:58:16.881Z,18.60
2018-07-23T06:00:46.845Z,18.60
2018-07-23T06:03:16.814Z,18.70
2018-07-23T06:05:46.746Z,18.70
2018-07-23T06:08:16.777Z,18.80
2018-07-23T06:13:16.754Z,19.10
2018-07-23T06:15:46.949Z,19.20
2018-07-23T06:18:16.976Z,19.20
2018-07-23T06:20:46.859Z,19.30
2018-07-23T06:23:16.855Z,19.40
2018-07-23T06:25:47.043Z,19.50
2018-07-23T06:28:16.813Z,19.60
2018-07-23T06:30:46.910Z,20.00
2018-07-23T06:35:46.745Z,20.30
2018-07-23T06:38:16.882Z,20.50
2018-07-23T06:40:46.964Z,20.60
2018-07-23T06:43:16.992Z,20.80
2018-07-23T06:45:46.920Z,20.90
2018-07-23T06:48:16.929Z,21.00
2018-07-23T06:50:46.978Z,21.30
2018-07-23T06:53:18.202Z,21.40
2018-07-23T06:55:47.490Z,21.50
2018-07-23T06:58:16.972Z,21.70
2018-07-23T07:00:46.991Z,21.80
2018-07-23T07:03:16.885Z,21.70
2018-07-23T07:05:47.008Z,21.70
2018-07-23T07:08:16.967Z,21.80
2018-07-23T07:10:46.907Z,21.90
2018-07-23T07:13:17.025Z,22.00
2018-07-23T07:15:46.868Z,22.10
2018-07-23T07:18:16.866Z,22.10
2018-07-23T07:20:46.965Z,22.10
2018-07-23T07:23:17.015Z,22.10
2018-07-23T07:25:47.119Z,22.70
2018-07-23T07:28:16.884Z,23.30
2018-07-23T07:30:46.993Z,23.60
2018-07-23T07:33:16.954Z,23.90
2018-07-23T07:35:46.924Z,24.20
2018-07-23T07:38:17.086Z,24.10
2018-07-23T07:40:47.068Z,24.00
2018-07-23T07:43:16.981Z,23.90
2018-07-23T07:45:46.954Z,23.70
2018-07-23T07:48:17.048Z,23.70
2018-07-23T07:50:49.795Z,24.30
2018-07-23T07:53:19.169Z,24.80
2018-07-23T07:55:48.730Z,25.20
2018-07-23T07:58:18.078Z,25.60
2018-07-23T08:00:47.489Z,25.90
2018-07-23T08:03:17.571Z,25.60
2018-07-23T08:08:20.364Z,25.10
2018-07-23T08:10:49.719Z,25.30
2018-07-23T08:13:19.055Z,25.80
2018-07-23T08:15:48.474Z,25.60
2018-07-23T08:18:17.778Z,25.90
2018-07-23T08:20:47.121Z,26.40
2018-07-23T08:23:18.005Z,26.70
2018-07-23T08:25:47.388Z,27.90
2018-07-23T08:28:17.760Z,28.20
2018-07-23T08:30:49.933Z,27.80
2018-07-23T08:33:19.295Z,27.10
2018-07-23T08:35:48.596Z,26.40
2018-07-23T08:38:17.961Z,25.90
2018-07-23T08:40:48.101Z,25.80
2018-07-23T08:43:19.238Z,25.60
2018-07-23T08:45:49.393Z,25.30
2018-07-23T08:48:19.714Z,25.50
2018-07-23T08:50:49.612Z,26.30
2018-07-23T08:55:48.606Z,27.20
2018-07-23T08:58:17.952Z,27.80
2018-07-23T09:00:47.293Z,28.40
2018-07-23T09:03:17.205Z,29.00
2018-07-23T09:05:48.140Z,30.00
2018-07-23T09:08:18.696Z,29.10
2018-07-23T09:10:48.797Z,28.00
2018-07-23T09:13:18.133Z,27.00
2018-07-23T09:15:48.178Z,26.60
2018-07-23T09:18:17.543Z,26.70
2018-07-23T09:20:47.752Z,26.40
2018-07-23T09:23:17.182Z,26.40
2018-07-23T09:25:48.421Z,27.20
2018-07-23T09:28:19.095Z,28.40
2018-07-23T09:30:52.474Z,29.00
2018-07-23T09:33:23.726Z,29.50
2018-07-23T09:35:53.617Z,30.10
2018-07-23T09:38:24.246Z,30.20
2018-07-23T09:40:54.101Z,29.40
2018-07-23T09:43:23.422Z,28.40
2018-07-23T09:45:52.740Z,27.70
2018-07-23T09:48:22.070Z,27.90
2018-07-23T09:50:51.380Z,28.40
2018-07-23T09:53:20.681Z,29.20
2018-07-23T09:55:50.854Z,29.40
2018-07-23T09:58:20.138Z,30.00
2018-07-23T10:00:54.915Z,30.70
2018-07-23T10:03:30.264Z,30.20
2018-07-23T10:05:59.573Z,30.40
2018-07-23T10:08:28.902Z,30.20
2018-07-23T10:10:58.911Z,29.50
2018-07-23T10:13:28.244Z,28.90
2018-07-23T10:15:57.642Z,29.30
2018-07-23T10:18:26.969Z,30.10
2018-07-23T10:20:56.297Z,31.30
2018-07-23T10:23:25.615Z,31.80
2018-07-23T10:25:54.955Z,32.40
2018-07-23T10:28:24.273Z,32.00
2018-07-23T10:30:53.718Z,31.40
2018-07-23T10:33:23.268Z,30.40
2018-07-23T10:35:52.617Z,29.80
2018-07-23T10:38:22.103Z,30.20
2018-07-23T10:40:51.514Z,31.00
2018-07-23T10:43:20.929Z,31.50
2018-07-23T10:45:50.225Z,31.70
2018-07-23T10:48:19.590Z,31.80
2018-07-23T10:50:48.939Z,31.80
2018-07-23T10:53:18.232Z,30.60
2018-07-23T10:55:47.558Z,29.70
2018-07-23T10:58:17.556Z,30.20
2018-07-23T11:00:47.614Z,30.70
2018-07-23T11:03:17.670Z,30.80
2018-07-23T11:05:47.526Z,31.10
2018-07-23T11:08:17.536Z,31.10
2018-07-23T11:10:47.492Z,31.90
2018-07-23T11:13:17.463Z,32.60
2018-07-23T11:15:47.555Z,32.30
2018-07-23T11:18:17.523Z,32.30
2018-07-23T11:20:47.538Z,32.00
2018-07-23T11:23:17.522Z,32.00
2018-07-23T11:25:47.529Z,32.60
2018-07-23T11:28:17.524Z,32.90
2018-07-23T11:30:47.500Z,33.50
2018-07-23T11:33:17.580Z,33.40
2018-07-23T11:35:47.489Z,33.10
2018-07-23T11:38:17.526Z,33.50
2018-07-23T11:40:47.735Z,33.60
2018-07-23T11:43:17.650Z,33.10
2018-07-23T11:45:47.603Z,32.60
2018-07-23T11:48:17.555Z,31.70
2018-07-23T11:50:47.623Z,32.10
2018-07-23T11:53:17.698Z,32.70
2018-07-23T11:55:47.577Z,32.30
2018-07-23T11:58:17.576Z,31.40
2018-07-23T12:00:47.696Z,30.70
2018-07-23T12:03:17.641Z,30.40
2018-07-23T12:08:17.483Z,30.90
2018-07-23T12:10:47.635Z,31.10
2018-07-23T12:13:17.701Z,31.20
2018-07-23T12:15:47.618Z,31.30
2018-07-23T12:18:17.628Z,31.10
2018-07-23T12:20:47.719Z,30.80
2018-07-23T12:23:17.634Z,30.90
2018-07-23T12:25:47.741Z,30.60
2018-07-23T12:28:17.902Z,30.40
2018-07-23T12:30:47.611Z,30.50
2018-07-23T12:33:17.661Z,30.30
2018-07-23T12:38:17.404Z,30.00
2018-07-23T12:40:47.706Z,29.90
2018-07-23T12:43:17.682Z,30.10
2018-07-23T12:45:47.645Z,30.40
2018-07-23T12:50:47.395Z,31.40
2018-07-23T12:53:17.683Z,31.30
2018-07-23T12:55:47.782Z,31.20
2018-07-23T13:00:47.530Z,30.20
2018-07-23T13:03:17.791Z,29.90
2018-07-23T13:05:47.840Z,29.60
2018-07-23T13:08:17.949Z,29.40
2018-07-23T13:10:47.786Z,29.40
2018-07-23T13:13:17.726Z,29.10
2018-07-23T13:15:47.782Z,29.30
2018-07-23T13:18:17.838Z,29.40
2018-07-23T13:20:47.838Z,29.60
2018-07-23T13:23:17.789Z,29.90
2018-07-23T13:25:47.768Z,30.20
2018-07-23T13:28:17.809Z,29.90
2018-07-23T13:30:47.838Z,29.50
2018-07-23T13:33:18.090Z,29.30
2018-07-23T13:35:47.879Z,29.90
2018-07-23T13:38:17.819Z,30.10
2018-07-23T13:40:47.850Z,30.00
2018-07-23T13:43:17.828Z,29.80
2018-07-23T13:45:47.874Z,29.40
2018-07-23T13:48:17.923Z,29.50
2018-07-23T13:50:48.022Z,29.60
2018-07-23T13:53:17.907Z,29.50
2018-07-23T13:55:47.923Z,29.40
2018-07-23T13:58:17.836Z,29.40
2018-07-23T14:00:47.937Z,29.30
2018-07-23T14:03:17.900Z,29.00
2018-07-23T14:05:47.910Z,28.80
2018-07-23T14:08:17.797Z,28.70
2018-07-23T14:10:48.007Z,28.80
2018-07-23T14:13:18.151Z,28.70
2018-07-23T14:15:47.956Z,28.40
2018-07-23T14:18:17.889Z,28.10
2018-07-23T14:20:47.971Z,28.10
2018-07-23T14:23:17.927Z,28.10
2018-07-23T14:25:47.990Z,28.30
2018-07-23T14:28:17.869Z,28.20
2018-07-23T14:30:47.887Z,28.20
2018-07-23T14:33:18.002Z,28.00
2018-07-23T14:35:47.932Z,28.20
2018-07-23T14:38:17.984Z,28.40
2018-07-23T14:40:48.068Z,28.40
2018-07-23T14:43:17.987Z,28.40
2018-07-23T14:45:48.148Z,28.40
2018-07-23T14:48:17.946Z,28.40
2018-07-23T14:50:48.012Z,28.60
2018-07-23T14:53:18.007Z,28.50
2018-07-23T14:55:48.035Z,28.40
2018-07-23T14:58:18.071Z,28.40
2018-07-23T15:00:48.250Z,28.40
2018-07-23T15:03:18.152Z,28.50
2018-07-23T15:05:48.107Z,28.40
2018-07-23T15:08:18.534Z,28.20
2018-07-23T15:10:47.941Z,28.20
2018-07-23T15:13:18.082Z,28.20
2018-07-23T15:15:48.133Z,28.20
2018-07-23T15:18:18.206Z,28.10
2018-07-23T15:20:48.170Z,28.00
2018-07-23T15:23:18.093Z,27.80
2018-07-23T15:25:48.038Z,27.70
2018-07-23T15:28:18.129Z,27.60
2018-07-23T15:30:48.106Z,27.60
2018-07-23T15:33:18.153Z,27.70
2018-07-23T15:35:48.218Z,27.70
2018-07-23T15:38:18.149Z,27.60
2018-07-23T15:40:48.064Z,27.50
2018-07-23T15:43:18.218Z,27.50
2018-07-23T15:45:48.291Z,27.40
2018-07-23T15:48:18.066Z,27.40
2018-07-23T15:50:48.199Z,27.30
2018-07-23T15:53:18.087Z,27.30
2018-07-23T15:55:48.079Z,27.20
2018-07-23T15:58:18.123Z,27.30
2018-07-23T16:00:48.330Z,27.20
2018-07-23T16:03:18.232Z,27.10
2018-07-23T16:05:48.258Z,27.10
2018-07-23T16:08:18.209Z,27.10
2018-07-23T16:10:48.236Z,27.00
2018-07-23T16:15:48.014Z,27.00
2018-07-23T16:18:18.277Z,27.00
2018-07-23T16:20:48.198Z,27.00
2018-07-23T16:23:18.309Z,26.90
2018-07-23T16:25:48.367Z,26.90
2018-07-23T16:28:18.310Z,26.80
2018-07-23T16:30:48.500Z,26.80
2018-07-23T16:33:18.281Z,26.80
2018-07-23T16:35:48.279Z,26.70
2018-07-23T16:38:18.370Z,26.70
2018-07-23T16:40:48.367Z,26.60
2018-07-23T16:43:18.233Z,26.60
2018-07-23T16:45:48.245Z,26.50
2018-07-23T16:48:18.345Z,26.50
2018-07-23T16:50:48.304Z,26.40
2018-07-23T16:53:18.459Z,26.30
2018-07-23T16:55:48.382Z,26.20
2018-07-23T16:58:18.386Z,26.20
2018-07-23T17:00:48.289Z,26.20
2018-07-23T17:03:18.338Z,26.20
2018-07-23T17:08:18.397Z,26.20
2018-07-23T17:10:48.321Z,26.20
2018-07-23T17:13:18.305Z,26.20
2018-07-23T17:15:48.243Z,26.10
2018-07-23T17:18:18.303Z,26.10
2018-07-23T17:20:51.023Z,26.00
2018-07-23T17:23:20.345Z,26.00
2018-07-23T17:25:49.600Z,25.90
2018-07-23T17:28:18.904Z,25.90
2018-07-23T17:30:48.370Z,25.80
2018-07-23T17:33:18.310Z,25.80
2018-07-23T17:35:48.278Z,25.80
2018-07-23T17:38:18.371Z,25.80
2018-07-23T17:40:48.382Z,25.70
2018-07-23T17:43:18.522Z,25.70
2018-07-23T17:45:48.630Z,25.60
2018-07-23T17:48:18.309Z,25.60
2018-07-23T17:50:48.370Z,25.50
2018-07-23T17:53:18.473Z,25.50
2018-07-23T17:55:48.322Z,25.50
2018-07-23T17:58:18.390Z,25.40
2018-07-23T18:00:48.421Z,25.40
2018-07-23T18:03:18.466Z,25.30
2018-07-23T18:05:48.721Z,25.20
2018-07-23T18:08:18.799Z,25.10
2018-07-23T18:10:48.447Z,25.10
2018-07-23T18:13:18.434Z,25.10
2018-07-23T18:15:48.462Z,25.10
2018-07-23T18:18:18.476Z,24.90
2018-07-23T18:20:48.391Z,24.90
2018-07-23T18:23:18.467Z,24.90
2018-07-23T18:25:48.469Z,24.90
2018-07-23T18:28:18.446Z,24.90
2018-07-23T18:30:48.613Z,24.80
2018-07-23T18:33:18.530Z,24.80
2018-07-23T18:35:48.448Z,24.70
2018-07-23T18:38:18.554Z,24.60
2018-07-23T18:40:48.457Z,24.60
2018-07-23T18:43:18.530Z,24.50
2018-07-23T18:45:48.440Z,24.40
2018-07-23T18:49:39.489Z,24.40
2018-07-23T18:52:08.809Z,24.40
2018-07-23T18:54:38.597Z,24.40
2018-07-23T18:57:08.506Z,24.40
2018-07-23T18:59:37.829Z,24.40
2018-07-23T19:04:37.740Z,24.40
2018-07-23T19:07:08.180Z,24.40
2018-07-23T19:09:37.585Z,24.30
2018-07-23T19:12:07.367Z,24.30
2018-07-23T19:14:36.681Z,24.30
2018-07-23T19:17:07.578Z,24.20
2018-07-23T19:19:36.955Z,24.20
2018-07-23T19:22:06.397Z,24.10
2018-07-23T19:24:35.741Z,24.10
2018-07-23T19:27:05.325Z,24.00
2018-07-23T19:29:34.817Z,24.00
2018-07-23T19:32:04.204Z,23.90
2018-07-23T19:34:33.539Z,23.80
2018-07-23T19:37:02.860Z,23.80
2018-07-23T19:39:32.267Z,23.70
2018-07-23T19:42:01.739Z,23.70
2018-07-23T19:44:30.978Z,23.60
2018-07-23T19:47:00.321Z,23.50
2018-07-23T19:49:33.441Z,23.50
2018-07-23T19:52:02.906Z,23.40
2018-07-23T19:54:32.215Z,23.30
2018-07-23T19:57:01.609Z,23.30
2018-07-23T19:59:30.974Z,23.20
2018-07-23T20:02:00.285Z,23.20
2018-07-23T20:04:29.631Z,23.10
2018-07-23T20:06:59.041Z,23.10
2018-07-23T20:09:28.374Z,23.00
2018-07-23T20:11:57.697Z,23.00
2018-07-23T20:14:27.075Z,22.90
2018-07-23T20:16:56.473Z,22.90
2018-07-23T20:19:25.949Z,22.90
2018-07-23T20:21:55.281Z,22.80
2018-07-23T20:24:24.603Z,22.80
2018-07-23T20:26:53.947Z,22.70
2018-07-23T20:29:23.358Z,22.70
2018-07-23T20:31:52.697Z,22.70
2018-07-23T20:34:22.058Z,22.60
2018-07-23T20:36:51.929Z,22.60
2018-07-23T20:39:23.367Z,22.50
2018-07-23T20:41:52.784Z,22.50
2018-07-23T20:44:22.200Z,22.50
2018-07-23T20:46:51.526Z,22.40
2018-07-23T20:49:20.820Z,22.40
2018-07-23T20:51:50.142Z,22.40
2018-07-23T20:54:21.075Z,22.30
2018-07-23T20:56:50.390Z,22.30
2018-07-23T20:59:19.750Z,22.20
2018-07-23T21:01:49.198Z,22.10
2018-07-23T21:04:19.161Z,22.10
2018-07-23T21:06:49.467Z,22.10
2018-07-23T21:09:19.137Z,22.00
2018-07-23T21:11:49.121Z,22.00
2018-07-23T21:14:19.230Z,21.90
2018-07-23T21:16:49.188Z,21.90
2018-07-23T21:21:48.975Z,21.80
2018-07-23T21:26:48.975Z,21.70
2018-07-23T21:29:21.054Z,21.70
2018-07-23T21:31:50.398Z,21.60
2018-07-23T21:34:19.691Z,21.60
2018-07-23T21:36:49.223Z,21.60
2018-07-23T21:39:19.269Z,21.50
2018-07-23T21:41:49.314Z,21.50
2018-07-23T21:44:19.322Z,21.50
2018-07-23T21:46:49.261Z,21.50
2018-07-23T21:49:19.453Z,21.40
2018-07-23T21:51:49.286Z,21.40
2018-07-23T21:54:19.271Z,21.40
2018-07-23T21:59:19.154Z,21.30
2018-07-23T22:01:49.386Z,21.30
2018-07-23T22:04:19.375Z,21.30
2018-07-23T22:06:49.437Z,21.20
2018-07-23T22:09:19.333Z,21.20
2018-07-23T22:11:49.337Z,21.20
2018-07-23T22:14:19.420Z,21.20
2018-07-23T22:16:49.454Z,21.20
2018-07-23T22:19:19.292Z,21.10
2018-07-23T22:21:49.342Z,21.10
2018-07-23T22:24:19.387Z,21.00
2018-07-23T22:26:49.427Z,21.00
2018-07-23T22:29:19.659Z,21.00
2018-07-23T22:31:49.253Z,20.90
2018-07-23T22:34:19.479Z,20.90
2018-07-23T22:36:49.506Z,20.90
2018-07-23T22:39:19.361Z,20.90
2018-07-23T22:41:49.337Z,20.90
2018-07-23T22:44:19.453Z,20.80
2018-07-23T22:46:49.443Z,20.80
2018-07-23T22:49:19.312Z,20.80
2018-07-23T22:51:49.515Z,20.80
2018-07-23T22:54:19.381Z,20.70
2018-07-23T22:56:49.465Z,20.70
2018-07-23T22:59:19.702Z,20.60
2018-07-23T23:01:49.542Z,20.60
2018-07-23T23:04:19.498Z,20.60
2018-07-23T23:06:49.428Z,20.50
2018-07-23T23:09:21.290Z,20.50
2018-07-23T23:11:50.608Z,20.40
2018-07-23T23:14:20.041Z,20.40
2018-07-23T23:16:49.514Z,20.40
2018-07-23T23:19:19.527Z,20.40
2018-07-23T23:24:19.332Z,20.30
2018-07-23T23:29:19.539Z,20.30
2018-07-23T23:31:49.505Z,20.30
2018-07-23T23:34:19.863Z,20.20
2018-07-23T23:36:49.578Z,20.20
2018-07-23T23:39:19.467Z,20.20
2018-07-23T23:41:49.541Z,20.10
2018-07-23T23:44:19.495Z,20.00
2018-07-23T23:46:49.512Z,20.00
2018-07-23T23:49:19.526Z,20.00
2018-07-23T23:51:49.553Z,19.90
2018-07-23T23:54:19.577Z,19.90
2018-07-23T23:56:49.669Z,19.90
2018-07-23T23:59:20.960Z,19.80
